Ford Heights, Illinois
Current Conditions -  °F | °C
As of 10:15 AM on Friday 21 Nov 2014 (Local Time) from KIGQ Reporting Station
Clear Clear  
Wind Chill: 18°   Ceiling: Unl
Heat Index: 26°   Visibility: 10mi
Dew Point: 11°   Wind: 7mph
Humidity: 53%   Direction: 170°S
Pressure: 30.48"   Gusts: NA
Location:  41.5054°N, 87.5907°W
Report Text: KIGQ 211615Z AUTO 17006KT 10SM CLR M03/M12 A3048 RMK AO2 T10351119
Loading
Personal Weather Stations






























Interactive Weather Map New forecast layout! Learn more

10-Day Weather Forecast

Advertisements
Track Severe Weather on mobile